sensor_id;sensor_type;location;lat;lon;timestamp;pressure;altitude;pressure_sealevel;temperature
72236;BMP280;60146;52.498;13.462;2024-01-15T00:01:42;96396.22;;;4.02
72236;BMP280;60146;52.498;13.462;2024-01-15T00:04:07;96406.00;;;3.93
72236;BMP280;60146;52.498;13.462;2024-01-15T00:06:33;96430.63;;;3.87
72236;BMP280;60146;52.498;13.462;2024-01-15T00:08:58;96355.75;;;3.94
72236;BMP280;60146;52.498;13.462;2024-01-15T00:11:24;96255.34;;;3.84
72236;BMP280;60146;52.498;13.462;2024-01-15T00:13:49;96234.25;;;3.82
72236;BMP280;60146;52.498;13.462;2024-01-15T00:16:14;96213.28;;;3.69
72236;BMP280;60146;52.498;13.462;2024-01-15T00:18:40;96159.63;;;3.66
72236;BMP280;60146;52.498;13.462;2024-01-15T00:21:05;96133.91;;;3.73
72236;BMP280;60146;52.498;13.462;2024-01-15T00:23:30;96160.19;;;3.75
72236;BMP280;60146;52.498;13.462;2024-01-15T00:25:56;96137.31;;;3.77
72236;BMP280;60146;52.498;13.462;2024-01-15T00:28:21;96153.13;;;3.72
72236;BMP280;60146;52.498;13.462;2024-01-15T00:30:46;96176.47;;;3.75
72236;BMP280;60146;52.498;13.462;2024-01-15T00:33:12;96206.84;;;3.78
72236;BMP280;60146;52.498;13.462;2024-01-15T00:35:37;96208.44;;;3.86
72236;BMP280;60146;52.498;13.462;2024-01-15T00:38:03;96212.06;;;3.81
72236;BMP280;60146;52.498;13.462;2024-01-15T00:40:28;96202.53;;;3.85
72236;BMP280;60146;52.498;13.462;2024-01-15T00:42:53;96249.44;;;3.84
72236;BMP280;60146;52.498;13.462;2024-01-15T00:45:19;96290.59;;;3.89
72236;BMP280;60146;52.498;13.462;2024-01-15T00:47:44;96308.59;;;3.85
72236;BMP280;60146;52.498;13.462;2024-01-15T00:50:09;96324.28;;;3.92
72236;BMP280;60146;52.498;13.462;2024-01-15T00:52:35;96348.25;;;3.89
72236;BMP280;60146;52.498;13.462;2024-01-15T00:55:00;96336.47;;;3.92
72236;BMP280;60146;52.498;13.462;2024-01-15T00:57:25;96352.25;;;3.87
72236;BMP280;60146;52.498;13.462;2024-01-15T00:59:51;96382.31;;;3.91
72236;BMP280;60146;52.498;13.462;2024-01-15T01:02:16;96414.19;;;3.95
72236;BMP280;60146;52.498;13.462;2024-01-15T01:04:41;96415.00;;;3.84
72236;BMP280;60146;52.498;13.462;2024-01-15T01:07:07;96325.50;;;3.80
72236;BMP280;60146;52.498;13.462;2024-01-15T01:09:32;96260.66;;;3.73
72236;BMP280;60146;52.498;13.462;2024-01-15T01:11:58;96208.78;;;3.66
72236;BMP280;60146;52.498;13.462;2024-01-15T01:14:23;96187.94;;;3.59
72236;BMP280;60146;52.498;13.462;2024-01-15T01:16:48;96144.66;;;3.56
72236;BMP280;60146;52.498;13.462;2024-01-15T01:19:14;96063.59;;;3.49
72236;BMP280;60146;52.498;13.462;2024-01-15T01:21:39;95991.84;;;3.42
72236;BMP280;60146;52.498;13.462;2024-01-15T01:24:05;95914.22;;;3.39
72236;BMP280;60146;52.498;13.462;2024-01-15T01:26:30;95858.44;;;3.38
72236;BMP280;60146;52.498;13.462;2024-01-15T01:28:56;95815.97;;;3.36
72236;BMP280;60146;52.498;13.462;2024-01-15T01:31:21;95844.28;;;3.29
72236;BMP280;60146;52.498;13.462;2024-01-15T01:33:46;95843.66;;;3.35
72236;BMP280;60146;52.498;13.462;2024-01-15T01:36:12;95843.41;;;3.43
72236;BMP280;60146;52.498;13.462;2024-01-15T01:38:37;95837.75;;;3.35
72236;BMP280;60146;52.498;13.462;2024-01-15T01:41:03;95825.56;;;3.35
72236;BMP280;60146;52.498;13.462;2024-01-15T01:43:28;95806.34;;;3.33
72236;BMP280;60146;52.498;13.462;2024-01-15T01:45:56;95798.56;;;3.33
72236;BMP280;60146;52.498;13.462;2024-01-15T01:48:23;95817.25;;;3.23
72236;BMP280;60146;52.498;13.462;2024-01-15T01:50:50;95724.25;;;3.26
72236;BMP280;60146;52.498;13.462;2024-01-15T01:53:15;95650.88;;;3.05
72236;BMP280;60146;52.498;13.462;2024-01-15T01:55:41;95556.50;;;3.14
72236;BMP280;60146;52.498;13.462;2024-01-15T01:58:06;95484.19;;;3.18
72236;BMP280;60146;52.498;13.462;2024-01-15T02:00:33;95436.91;;;3.14
72236;BMP280;60146;52.498;13.462;2024-01-15T02:02:59;95422.91;;;3.15
72236;BMP280;60146;52.498;13.462;2024-01-15T02:05:25;95449.06;;;3.10
72236;BMP280;60146;52.498;13.462;2024-01-15T02:07:52;95489.31;;;3.11
72236;BMP280;60146;52.498;13.462;2024-01-15T02:10:17;95542.59;;;3.22
72236;BMP280;60146;52.498;13.462;2024-01-15T02:12:43;95613.31;;;3.11
72236;BMP280;60146;52.498;13.462;2024-01-15T02:15:08;95677.22;;;3.17
72236;BMP280;60146;52.498;13.462;2024-01-15T02:17:34;95736.97;;;3.13
72236;BMP280;60146;52.498;13.462;2024-01-15T02:19:59;95761.66;;;3.10
72236;BMP280;60146;52.498;13.462;2024-01-15T02:22:24;95787.78;;;3.05
72236;BMP280;60146;52.498;13.462;2024-01-15T02:24:50;95787.31;;;3.00
72236;BMP280;60146;52.498;13.462;2024-01-15T02:27:15;95794.03;;;3.04
72236;BMP280;60146;52.498;13.462;2024-01-15T02:29:41;95836.56;;;3.10
72236;BMP280;60146;52.498;13.462;2024-01-15T02:32:08;95891.22;;;3.12
72236;BMP280;60146;52.498;13.462;2024-01-15T02:34:34;95959.97;;;3.16
72236;BMP280;60146;52.498;13.462;2024-01-15T02:36:59;96073.31;;;3.18
72236;BMP280;60146;52.498;13.462;2024-01-15T02:39:24;96085.56;;;3.21
72236;BMP280;60146;52.498;13.462;2024-01-15T02:41:50;96113.84;;;3.14
72236;BMP280;60146;52.498;13.462;2024-01-15T02:44:15;96101.50;;;3.23
72236;BMP280;60146;52.498;13.462;2024-01-15T02:46:40;96156.41;;;3.20
72236;BMP280;60146;52.498;13.462;2024-01-15T02:49:05;96177.94;;;3.24
72236;BMP280;60146;52.498;13.462;2024-01-15T02:51:31;96213.72;;;3.22
72236;BMP280;60146;52.498;13.462;2024-01-15T02:53:56;96190.75;;;3.20
72236;BMP280;60146;52.498;13.462;2024-01-15T02:56:22;96211.38;;;3.17
72236;BMP280;60146;52.498;13.462;2024-01-15T02:58:47;96218.13;;;3.21
72236;BMP280;60146;52.498;13.462;2024-01-15T03:01:12;96191.00;;;3.31
72236;BMP280;60146;52.498;13.462;2024-01-15T03:03:39;96195.44;;;3.30
72236;BMP280;60146;52.498;13.462;2024-01-15T03:06:05;96226.38;;;3.27
72236;BMP280;60146;52.498;13.462;2024-01-15T03:08:30;96259.97;;;3.27
72236;BMP280;60146;52.498;13.462;2024-01-15T03:10:56;96216.09;;;3.30
72236;BMP280;60146;52.498;13.462;2024-01-15T03:13:21;96303.34;;;3.33
72236;BMP280;60146;52.498;13.462;2024-01-15T03:15:46;96371.31;;;3.34
72236;BMP280;60146;52.498;13.462;2024-01-15T03:18:12;96402.78;;;3.39
72236;BMP280;60146;52.498;13.462;2024-01-15T03:20:37;96452.25;;;3.37
72236;BMP280;60146;52.498;13.462;2024-01-15T03:23:03;96488.06;;;3.36
72236;BMP280;60146;52.498;13.462;2024-01-15T03:25:28;96436.75;;;3.37
72236;BMP280;60146;52.498;13.462;2024-01-15T03:27:53;96483.38;;;3.41
72236;BMP280;60146;52.498;13.462;2024-01-15T03:30:18;96455.53;;;3.35
72236;BMP280;60146;52.498;13.462;2024-01-15T03:32:44;96476.22;;;3.35
72236;BMP280;60146;52.498;13.462;2024-01-15T03:35:09;96484.84;;;3.27
72236;BMP280;60146;52.498;13.462;2024-01-15T03:37:34;96421.56;;;3.36
72236;BMP280;60146;52.498;13.462;2024-01-15T03:40:00;96455.25;;;3.39
72236;BMP280;60146;52.498;13.462;2024-01-15T03:42:26;96500.56;;;3.34
72236;BMP280;60146;52.498;13.462;2024-01-15T03:44:51;96464.59;;;3.29
72236;BMP280;60146;52.498;13.462;2024-01-15T03:47:16;96422.50;;;3.43
72236;BMP280;60146;52.498;13.462;2024-01-15T03:49:42;96506.00;;;3.44
72236;BMP280;60146;52.498;13.462;2024-01-15T03:52:07;96547.28;;;3.40
72236;BMP280;60146;52.498;13.462;2024-01-15T03:54:32;96511.91;;;3.44
72236;BMP280;60146;52.498;13.462;2024-01-15T03:56:58;96579.81;;;3.41
72236;BMP280;60146;52.498;13.462;2024-01-15T03:59:23;96506.66;;;3.41
72236;BMP280;60146;52.498;13.462;2024-01-15T04:01:51;96617.69;;;3.49
72236;BMP280;60146;52.498;13.462;2024-01-15T04:04:17;96614.81;;;3.51
72236;BMP280;60146;52.498;13.462;2024-01-15T04:06:43;96629.88;;;3.49
72236;BMP280;60146;52.498;13.462;2024-01-15T04:09:08;96628.38;;;3.48
72236;BMP280;60146;52.498;13.462;2024-01-15T04:11:33;96602.19;;;3.49
72236;BMP280;60146;52.498;13.462;2024-01-15T04:13:59;96604.34;;;3.47
72236;BMP280;60146;52.498;13.462;2024-01-15T04:16:24;96604.78;;;3.49
72236;BMP280;60146;52.498;13.462;2024-01-15T04:18:49;96541.53;;;3.47
72236;BMP280;60146;52.498;13.462;2024-01-15T04:21:17;96606.94;;;3.47
72236;BMP280;60146;52.498;13.462;2024-01-15T04:23:43;96633.22;;;3.49
72236;BMP280;60146;52.498;13.462;2024-01-15T04:26:08;96640.53;;;3.47
72236;BMP280;60146;52.498;13.462;2024-01-15T04:28:34;96596.06;;;3.42
72236;BMP280;60146;52.498;13.462;2024-01-15T04:30:59;96666.19;;;3.52
72236;BMP280;60146;52.498;13.462;2024-01-15T04:33:24;96711.34;;;3.55
72236;BMP280;60146;52.498;13.462;2024-01-15T04:35:49;96667.47;;;3.58
72236;BMP280;60146;52.498;13.462;2024-01-15T04:38:15;96717.38;;;3.58
72236;BMP280;60146;52.498;13.462;2024-01-15T04:40:40;96767.25;;;3.59
72236;BMP280;60146;52.498;13.462;2024-01-15T04:43:06;96794.22;;;3.58
72236;BMP280;60146;52.498;13.462;2024-01-15T04:45:31;96771.78;;;3.62
72236;BMP280;60146;52.498;13.462;2024-01-15T04:47:56;96825.78;;;3.63
72236;BMP280;60146;52.498;13.462;2024-01-15T04:50:23;96833.97;;;3.65
72236;BMP280;60146;52.498;13.462;2024-01-15T04:52:48;96825.03;;;3.63
72236;BMP280;60146;52.498;13.462;2024-01-15T04:55:13;96852.63;;;3.59
72236;BMP280;60146;52.498;13.462;2024-01-15T04:57:39;96828.59;;;3.58
72236;BMP280;60146;52.498;13.462;2024-01-15T05:00:04;96780.97;;;3.59
72236;BMP280;60146;52.498;13.462;2024-01-15T05:02:30;96834.50;;;3.59
72236;BMP280;60146;52.498;13.462;2024-01-15T05:04:55;96878.69;;;3.54
72236;BMP280;60146;52.498;13.462;2024-01-15T05:07:20;96881.59;;;3.64
72236;BMP280;60146;52.498;13.462;2024-01-15T05:09:46;96930.75;;;3.64
72236;BMP280;60146;52.498;13.462;2024-01-15T05:12:11;96923.56;;;3.70
72236;BMP280;60146;52.498;13.462;2024-01-15T05:14:37;96970.31;;;3.65
72236;BMP280;60146;52.498;13.462;2024-01-15T05:17:02;96947.94;;;3.69
72236;BMP280;60146;52.498;13.462;2024-01-15T05:19:27;96928.75;;;3.70
72236;BMP280;60146;52.498;13.462;2024-01-15T05:21:53;96867.72;;;3.69
72236;BMP280;60146;52.498;13.462;2024-01-15T05:24:18;96816.63;;;3.66
72236;BMP280;60146;52.498;13.462;2024-01-15T05:26:43;96758.19;;;3.65
72236;BMP280;60146;52.498;13.462;2024-01-15T05:29:09;96708.94;;;3.73
72236;BMP280;60146;52.498;13.462;2024-01-15T05:31:35;96765.31;;;3.68
72236;BMP280;60146;52.498;13.462;2024-01-15T05:34:01;96779.31;;;3.67
72236;BMP280;60146;52.498;13.462;2024-01-15T05:36:26;96761.66;;;3.69
72236;BMP280;60146;52.498;13.462;2024-01-15T05:38:51;96749.03;;;3.67
72236;BMP280;60146;52.498;13.462;2024-01-15T05:41:17;96715.88;;;3.58
72236;BMP280;60146;52.498;13.462;2024-01-15T05:43:43;96749.91;;;3.71
72236;BMP280;60146;52.498;13.462;2024-01-15T05:46:08;96792.16;;;3.75
72236;BMP280;60146;52.498;13.462;2024-01-15T05:48:34;96837.13;;;3.71
72236;BMP280;60146;52.498;13.462;2024-01-15T05:50:59;96835.19;;;3.80
72236;BMP280;60146;52.498;13.462;2024-01-15T05:53:24;96841.44;;;3.79
72236;BMP280;60146;52.498;13.462;2024-01-15T05:55:50;96830.41;;;3.81
72236;BMP280;60146;52.498;13.462;2024-01-15T05:58:15;96799.50;;;3.73
72236;BMP280;60146;52.498;13.462;2024-01-15T06:00:40;96670.66;;;3.67
72236;BMP280;60146;52.498;13.462;2024-01-15T06:03:06;96538.16;;;3.58
72236;BMP280;60146;52.498;13.462;2024-01-15T06:05:31;96418.53;;;3.61
72236;BMP280;60146;52.498;13.462;2024-01-15T06:07:57;96367.41;;;3.55
72236;BMP280;60146;52.498;13.462;2024-01-15T06:10:22;96461.91;;;3.52
72236;BMP280;60146;52.498;13.462;2024-01-15T06:12:48;96440.03;;;3.65
72236;BMP280;60146;52.498;13.462;2024-01-15T06:15:13;96496.94;;;3.65
72236;BMP280;60146;52.498;13.462;2024-01-15T06:17:38;96490.56;;;3.74
72236;BMP280;60146;52.498;13.462;2024-01-15T06:20:05;96538.53;;;3.72
72236;BMP280;60146;52.498;13.462;2024-01-15T06:22:30;96537.44;;;3.73
72236;BMP280;60146;52.498;13.462;2024-01-15T06:24:56;96577.75;;;3.74
72236;BMP280;60146;52.498;13.462;2024-01-15T06:27:21;96627.16;;;3.69
72236;BMP280;60146;52.498;13.462;2024-01-15T06:29:47;96623.28;;;3.63
72236;BMP280;60146;52.498;13.462;2024-01-15T06:32:12;96624.84;;;3.67
72236;BMP280;60146;52.498;13.462;2024-01-15T06:34:38;96657.94;;;3.74
72236;BMP280;60146;52.498;13.462;2024-01-15T06:37:03;96644.69;;;3.75
72236;BMP280;60146;52.498;13.462;2024-01-15T06:39:28;96555.22;;;3.74
72236;BMP280;60146;52.498;13.462;2024-01-15T06:41:54;96526.91;;;3.66
72236;BMP280;60146;52.498;13.462;2024-01-15T06:44:19;96535.53;;;3.70
72236;BMP280;60146;52.498;13.462;2024-01-15T06:46:47;96513.41;;;3.72
72236;BMP280;60146;52.498;13.462;2024-01-15T06:49:12;96532.59;;;3.71
72236;BMP280;60146;52.498;13.462;2024-01-15T06:51:38;96557.59;;;3.67
72236;BMP280;60146;52.498;13.462;2024-01-15T06:54:04;96582.41;;;3.68
72236;BMP280;60146;52.498;13.462;2024-01-15T06:56:29;96539.19;;;3.69
72236;BMP280;60146;52.498;13.462;2024-01-15T06:58:55;96551.56;;;3.75
72236;BMP280;60146;52.498;13.462;2024-01-15T07:01:20;96610.09;;;3.80
72236;BMP280;60146;52.498;13.462;2024-01-15T07:03:46;96625.63;;;3.80
72236;BMP280;60146;52.498;13.462;2024-01-15T07:06:11;96616.34;;;3.79
72236;BMP280;60146;52.498;13.462;2024-01-15T07:08:39;96614.25;;;3.84
72236;BMP280;60146;52.498;13.462;2024-01-15T07:11:04;96697.13;;;3.87
72236;BMP280;60146;52.498;13.462;2024-01-15T07:13:30;96750.84;;;3.90
72236;BMP280;60146;52.498;13.462;2024-01-15T07:15:56;96823.72;;;3.92
72236;BMP280;60146;52.498;13.462;2024-01-15T07:18:21;96780.28;;;3.98
72236;BMP280;60146;52.498;13.462;2024-01-15T07:20:46;96841.19;;;3.95
72236;BMP280;60146;52.498;13.462;2024-01-15T07:23:12;96856.72;;;3.95
72236;BMP280;60146;52.498;13.462;2024-01-15T07:25:37;96903.13;;;4.00
72236;BMP280;60146;52.498;13.462;2024-01-15T07:28:03;96951.28;;;4.04
72236;BMP280;60146;52.498;13.462;2024-01-15T07:30:29;96946.00;;;4.01
72236;BMP280;60146;52.498;13.462;2024-01-15T07:33:16;96955.09;;;4.07
72236;BMP280;60146;52.498;13.462;2024-01-15T07:35:41;96979.66;;;4.01
72236;BMP280;60146;52.498;13.462;2024-01-15T07:38:07;97008.66;;;3.95
72236;BMP280;60146;52.498;13.462;2024-01-15T07:40:39;97036.97;;;4.00
72236;BMP280;60146;52.498;13.462;2024-01-15T07:43:04;97034.88;;;4.05
72236;BMP280;60146;52.498;13.462;2024-01-15T07:45:30;97008.47;;;4.11
72236;BMP280;60146;52.498;13.462;2024-01-15T07:47:55;97102.00;;;4.10
72236;BMP280;60146;52.498;13.462;2024-01-15T07:50:21;97096.41;;;4.08
72236;BMP280;60146;52.498;13.462;2024-01-15T07:52:46;97077.31;;;4.12
72236;BMP280;60146;52.498;13.462;2024-01-15T07:55:12;97079.16;;;4.23
72236;BMP280;60146;52.498;13.462;2024-01-15T07:57:37;97164.16;;;4.22
72236;BMP280;60146;52.498;13.462;2024-01-15T08:00:03;97077.31;;;4.12
72236;BMP280;60146;52.498;13.462;2024-01-15T08:02:30;97063.34;;;4.05
72236;BMP280;60146;52.498;13.462;2024-01-15T08:04:59;97045.06;;;4.10
72236;BMP280;60146;52.498;13.462;2024-01-15T08:07:25;97059.75;;;4.18
72236;BMP280;60146;52.498;13.462;2024-01-15T08:09:52;97112.38;;;4.22
72236;BMP280;60146;52.498;13.462;2024-01-15T08:12:17;97149.00;;;4.20
72236;BMP280;60146;52.498;13.462;2024-01-15T08:14:43;97177.06;;;4.30
72236;BMP280;60146;52.498;13.462;2024-01-15T08:17:08;97205.72;;;4.25
72236;BMP280;60146;52.498;13.462;2024-01-15T08:19:33;97131.09;;;4.27
72236;BMP280;60146;52.498;13.462;2024-01-15T08:21:59;97152.50;;;4.16
72236;BMP280;60146;52.498;13.462;2024-01-15T08:24:24;97153.81;;;4.22
72236;BMP280;60146;52.498;13.462;2024-01-15T08:26:49;97132.38;;;4.21
72236;BMP280;60146;52.498;13.462;2024-01-15T08:29:15;97134.22;;;4.21
72236;BMP280;60146;52.498;13.462;2024-01-15T08:31:41;97147.53;;;4.11
72236;BMP280;60146;52.498;13.462;2024-01-15T08:34:06;97120.13;;;4.10
72236;BMP280;60146;52.498;13.462;2024-01-15T08:36:31;97086.09;;;4.20
72236;BMP280;60146;52.498;13.462;2024-01-15T08:38:57;97131.50;;;4.17
72236;BMP280;60146;52.498;13.462;2024-01-15T08:41:23;97144.22;;;4.22
72236;BMP280;60146;52.498;13.462;2024-01-15T08:43:49;97118.47;;;4.25
72236;BMP280;60146;52.498;13.462;2024-01-15T08:46:14;97128.81;;;4.25
72236;BMP280;60146;52.498;13.462;2024-01-15T08:48:40;97101.38;;;4.24
72236;BMP280;60146;52.498;13.462;2024-01-15T08:51:05;97174.53;;;4.22
72236;BMP280;60146;52.498;13.462;2024-01-15T08:53:33;97213.31;;;4.30
72236;BMP280;60146;52.498;13.462;2024-01-15T08:55:58;97179.72;;;4.22
72236;BMP280;60146;52.498;13.462;2024-01-15T08:58:23;97185.16;;;4.28
72236;BMP280;60146;52.498;13.462;2024-01-15T09:00:49;97156.22;;;4.26
72236;BMP280;60146;52.498;13.462;2024-01-15T09:03:16;97158.81;;;4.26
72236;BMP280;60146;52.498;13.462;2024-01-15T09:05:41;97167.03;;;4.28
72236;BMP280;60146;52.498;13.462;2024-01-15T09:08:07;97170.47;;;4.32
72236;BMP280;60146;52.498;13.462;2024-01-15T09:10:33;97179.34;;;4.31
72236;BMP280;60146;52.498;13.462;2024-01-15T09:12:59;97172.00;;;4.33
72236;BMP280;60146;52.498;13.462;2024-01-15T09:15:25;97199.78;;;4.24
72236;BMP280;60146;52.498;13.462;2024-01-15T09:17:50;97175.66;;;4.32
72236;BMP280;60146;52.498;13.462;2024-01-15T09:20:16;97154.75;;;4.37
72236;BMP280;60146;52.498;13.462;2024-01-15T09:22:41;97138.53;;;4.28
72236;BMP280;60146;52.498;13.462;2024-01-15T09:25:09;97141.88;;;4.41
72236;BMP280;60146;52.498;13.462;2024-01-15T09:27:37;97157.97;;;4.34
72236;BMP280;60146;52.498;13.462;2024-01-15T09:30:03;97124.84;;;4.40
72236;BMP280;60146;52.498;13.462;2024-01-15T09:32:30;97193.97;;;4.47
72236;BMP280;60146;52.498;13.462;2024-01-15T09:34:59;97177.13;;;4.53
72236;BMP280;60146;52.498;13.462;2024-01-15T09:37:24;97225.31;;;4.54
72236;BMP280;60146;52.498;13.462;2024-01-15T09:39:50;97226.66;;;4.52
72236;BMP280;60146;52.498;13.462;2024-01-15T09:42:16;97264.00;;;4.39
72236;BMP280;60146;52.498;13.462;2024-01-15T09:44:41;97214.84;;;4.43
72236;BMP280;60146;52.498;13.462;2024-01-15T09:47:07;97222.59;;;4.63
72236;BMP280;60146;52.498;13.462;2024-01-15T09:49:33;97309.06;;;4.58
72236;BMP280;60146;52.498;13.462;2024-01-15T09:51:59;97388.00;;;4.61
72236;BMP280;60146;52.498;13.462;2024-01-15T09:54:26;97387.94;;;4.69
72236;BMP280;60146;52.498;13.462;2024-01-15T09:56:52;97344.84;;;4.65
72236;BMP280;60146;52.498;13.462;2024-01-15T09:59:19;97319.88;;;4.60
72236;BMP280;60146;52.498;13.462;2024-01-15T10:01:45;97297.72;;;4.63
72236;BMP280;60146;52.498;13.462;2024-01-15T10:04:13;97321.97;;;4.67
72236;BMP280;60146;52.498;13.462;2024-01-15T10:06:39;97235.38;;;4.67
72236;BMP280;60146;52.498;13.462;2024-01-15T10:09:07;97306.53;;;4.70
72236;BMP280;60146;52.498;13.462;2024-01-15T10:11:33;97289.19;;;4.82
72236;BMP280;60146;52.498;13.462;2024-01-15T10:13:58;97308.44;;;4.93
72236;BMP280;60146;52.498;13.462;2024-01-15T10:16:24;97293.31;;;4.83
72236;BMP280;60146;52.498;13.462;2024-01-15T10:18:51;97314.06;;;4.95
72236;BMP280;60146;52.498;13.462;2024-01-15T10:21:16;97396.22;;;5.03
72236;BMP280;60146;52.498;13.462;2024-01-15T10:23:42;97349.28;;;4.96
72236;BMP280;60146;52.498;13.462;2024-01-15T10:26:08;97321.06;;;4.83
72236;BMP280;60146;52.498;13.462;2024-01-15T10:28:33;97350.56;;;4.90
72236;BMP280;60146;52.498;13.462;2024-01-15T10:30:59;97360.94;;;4.90
72236;BMP280;60146;52.498;13.462;2024-01-15T10:33:25;97371.09;;;4.95
72236;BMP280;60146;52.498;13.462;2024-01-15T10:35:56;97361.94;;;5.09
72236;BMP280;60146;52.498;13.462;2024-01-15T10:38:23;97444.41;;;5.04
72236;BMP280;60146;52.498;13.462;2024-01-15T10:40:55;97396.28;;;4.94
72236;BMP280;60146;52.498;13.462;2024-01-15T10:43:21;97390.34;;;4.94
72236;BMP280;60146;52.498;13.462;2024-01-15T10:45:50;97419.47;;;4.91
72236;BMP280;60146;52.498;13.462;2024-01-15T10:48:17;97413.16;;;4.80
72236;BMP280;60146;52.498;13.462;2024-01-15T10:50:43;97364.16;;;4.87
72236;BMP280;60146;52.498;13.462;2024-01-15T10:53:11;97348.53;;;4.95
72236;BMP280;60146;52.498;13.462;2024-01-15T10:55:37;97376.06;;;5.20
72236;BMP280;60146;52.498;13.462;2024-01-15T10:58:03;97492.03;;;5.19
72236;BMP280;60146;52.498;13.462;2024-01-15T11:00:29;97474.63;;;5.00
72236;BMP280;60146;52.498;13.462;2024-01-15T11:02:55;97438.97;;;4.97
72236;BMP280;60146;52.498;13.462;2024-01-15T11:05:21;97442.50;;;5.12
72236;BMP280;60146;52.498;13.462;2024-01-15T11:07:48;97460.41;;;5.06
72236;BMP280;60146;52.498;13.462;2024-01-15T11:10:42;97473.31;;;5.14
72236;BMP280;60146;52.498;13.462;2024-01-15T11:13:09;97537.78;;;5.55
72236;BMP280;60146;52.498;13.462;2024-01-15T11:16:02;97593.13;;;5.48
72236;BMP280;60146;52.498;13.462;2024-01-15T11:18:34;97574.09;;;5.24
72236;BMP280;60146;52.498;13.462;2024-01-15T11:23:56;97531.25;;;4.98
72236;BMP280;60146;52.498;13.462;2024-01-15T11:26:44;97529.25;;;5.03
72236;BMP280;60146;52.498;13.462;2024-01-15T11:29:29;97501.13;;;4.85
72236;BMP280;60146;52.498;13.462;2024-01-15T11:34:19;97370.00;;;4.84
72236;BMP280;60146;52.498;13.462;2024-01-15T11:42:03;97351.56;;;5.09
72236;BMP280;60146;52.498;13.462;2024-01-15T11:44:29;97311.41;;;5.03
72236;BMP280;60146;52.498;13.462;2024-01-15T11:47:03;97298.72;;;4.90
72236;BMP280;60146;52.498;13.462;2024-01-15T11:52:23;97131.34;;;4.57
72236;BMP280;60146;52.498;13.462;2024-01-15T11:55:19;96903.28;;;4.54
72236;BMP280;60146;52.498;13.462;2024-01-15T11:57:54;96805.59;;;4.54
72236;BMP280;60146;52.498;13.462;2024-01-15T12:00:20;96667.22;;;4.28
72236;BMP280;60146;52.498;13.462;2024-01-15T12:02:48;96556.63;;;4.14
72236;BMP280;60146;52.498;13.462;2024-01-15T12:05:18;96420.84;;;3.81
72236;BMP280;60146;52.498;13.462;2024-01-15T12:07:45;96370.56;;;3.79
72236;BMP280;60146;52.498;13.462;2024-01-15T12:10:12;96353.50;;;3.93
72236;BMP280;60146;52.498;13.462;2024-01-15T12:15:14;96413.41;;;4.10
72236;BMP280;60146;52.498;13.462;2024-01-15T12:17:39;96480.53;;;4.03
72236;BMP280;60146;52.498;13.462;2024-01-15T12:20:05;96506.25;;;4.11
72236;BMP280;60146;52.498;13.462;2024-01-15T12:22:31;96560.88;;;4.06
72236;BMP280;60146;52.498;13.462;2024-01-15T12:24:56;96520.09;;;4.03
72236;BMP280;60146;52.498;13.462;2024-01-15T12:27:23;96555.31;;;4.20
72236;BMP280;60146;52.498;13.462;2024-01-15T12:29:48;96616.56;;;4.16
72236;BMP280;60146;52.498;13.462;2024-01-15T12:32:13;96642.63;;;4.22
72236;BMP280;60146;52.498;13.462;2024-01-15T12:34:39;96636.47;;;4.27
72236;BMP280;60146;52.498;13.462;2024-01-15T12:37:04;96691.34;;;4.17
72236;BMP280;60146;52.498;13.462;2024-01-15T12:39:29;96653.84;;;4.26
72236;BMP280;60146;52.498;13.462;2024-01-15T12:41:55;96686.44;;;4.27
72236;BMP280;60146;52.498;13.462;2024-01-15T12:44:20;96645.41;;;4.29
72236;BMP280;60146;52.498;13.462;2024-01-15T12:46:46;96665.72;;;4.27
72236;BMP280;60146;52.498;13.462;2024-01-15T12:49:13;96538.31;;;3.92
72236;BMP280;60146;52.498;13.462;2024-01-15T12:51:38;96348.94;;;3.71
72236;BMP280;60146;52.498;13.462;2024-01-15T12:54:04;96161.69;;;3.57
72236;BMP280;60146;52.498;13.462;2024-01-15T12:56:29;96021.69;;;3.58
72236;BMP280;60146;52.498;13.462;2024-01-15T12:58:58;95993.72;;;3.64
72236;BMP280;60146;52.498;13.462;2024-01-15T13:01:24;95987.78;;;3.63
72236;BMP280;60146;52.498;13.462;2024-01-15T13:03:50;96033.56;;;3.59
72236;BMP280;60146;52.498;13.462;2024-01-15T13:06:15;96050.41;;;3.72
72236;BMP280;60146;52.498;13.462;2024-01-15T13:08:40;96140.75;;;3.80
72236;BMP280;60146;52.498;13.462;2024-01-15T13:11:06;96150.34;;;3.80
72236;BMP280;60146;52.498;13.462;2024-01-15T13:13:31;96170.53;;;3.93
72236;BMP280;60146;52.498;13.462;2024-01-15T13:15:59;96271.28;;;3.86
72236;BMP280;60146;52.498;13.462;2024-01-15T13:18:25;96283.97;;;3.91
72236;BMP280;60146;52.498;13.462;2024-01-15T13:20:50;96363.22;;;3.80
72236;BMP280;60146;52.498;13.462;2024-01-15T13:23:16;96334.63;;;3.92
72236;BMP280;60146;52.498;13.462;2024-01-15T13:25:41;96315.72;;;3.88
72236;BMP280;60146;52.498;13.462;2024-01-15T13:28:07;96374.22;;;3.93
72236;BMP280;60146;52.498;13.462;2024-01-15T13:30:36;96400.16;;;3.96
72236;BMP280;60146;52.498;13.462;2024-01-15T13:33:02;96388.44;;;4.02
72236;BMP280;60146;52.498;13.462;2024-01-15T13:35:30;96409.16;;;4.02
72236;BMP280;60146;52.498;13.462;2024-01-15T13:37:56;96444.31;;;4.03
72236;BMP280;60146;52.498;13.462;2024-01-15T13:40:21;96506.84;;;4.05
72236;BMP280;60146;52.498;13.462;2024-01-15T13:42:47;96532.91;;;4.12
72236;BMP280;60146;52.498;13.462;2024-01-15T13:45:13;96539.50;;;4.09
72236;BMP280;60146;52.498;13.462;2024-01-15T13:47:40;96530.31;;;4.12
72236;BMP280;60146;52.498;13.462;2024-01-15T13:50:06;96524.06;;;4.13
72236;BMP280;60146;52.498;13.462;2024-01-15T13:52:32;96444.41;;;4.06
72236;BMP280;60146;52.498;13.462;2024-01-15T13:54:57;96441.41;;;3.89
72236;BMP280;60146;52.498;13.462;2024-01-15T13:57:23;96358.59;;;3.89
72236;BMP280;60146;52.498;13.462;2024-01-15T13:59:48;96350.50;;;3.91
72236;BMP280;60146;52.498;13.462;2024-01-15T14:02:14;96398.66;;;3.95
72236;BMP280;60146;52.498;13.462;2024-01-15T14:04:40;96505.84;;;3.94
72236;BMP280;60146;52.498;13.462;2024-01-15T14:07:06;96596.09;;;3.96
72236;BMP280;60146;52.498;13.462;2024-01-15T14:09:32;96616.22;;;4.02
72236;BMP280;60146;52.498;13.462;2024-01-15T14:11:57;96707.97;;;4.04
72236;BMP280;60146;52.498;13.462;2024-01-15T14:14:22;96765.88;;;4.12
72236;BMP280;60146;52.498;13.462;2024-01-15T14:16:48;96767.38;;;4.13
72236;BMP280;60146;52.498;13.462;2024-01-15T14:19:13;96837.28;;;4.01